sensor_id;sensor_type;location;lat;lon;timestamp;P1;durP1;ratioP1;P2;durP2;ratioP2
20954;SDS011;10636;19.390;-99.256;2022-09-13T00:01:19;5.95;;;5.45;;
20954;SDS011;10636;19.390;-99.256;2022-09-13T00:03:47;5.28;;;4.47;;
20954;SDS011;10636;19.390;-99.256;2022-09-13T00:06:17;5.10;;;4.60;;
20954;SDS011;10636;19.390;-99.256;2022-09-13T00:08:46;5.40;;;4.40;;
20954;SDS011;10636;19.390;-99.256;2022-09-13T00:11:17;5.47;;;4.78;;
20954;SDS011;10636;19.390;-99.256;2022-09-13T00:13:47;6.55;;;4.72;;
20954;SDS011;10636;19.390;-99.256;2022-09-13T00:16:17;5.22;;;4.50;;
20954;SDS011;10636;19.390;-99.256;2022-09-13T00:18:46;7.60;;;5.10;;
20954;SDS011;10636;19.390;-99.256;2022-09-13T00:21:16;7.18;;;5.10;;
20954;SDS011;10636;19.390;-99.256;2022-09-13T00:23:45;7.13;;;5.30;;
20954;SDS011;10636;19.390;-99.256;2022-09-13T00:26:16;5.65;;;5.15;;
20954;SDS011;10636;19.390;-99.256;2022-09-13T00:28:48;7.70;;;5.57;;
20954;SDS011;10636;19.390;-99.256;2022-09-13T00:31:18;7.05;;;5.68;;
20954;SDS011;10636;19.390;-99.256;2022-09-13T00:33:48;9.88;;;6.90;;
20954;SDS011;10636;19.390;-99.256;2022-09-13T00:36:17;6.57;;;5.97;;
20954;SDS011;10636;19.390;-99.256;2022-09-13T00:38:45;9.02;;;7.18;;
20954;SDS011;10636;19.390;-99.256;2022-09-13T00:41:15;9.00;;;7.47;;
20954;SDS011;10636;19.390;-99.256;2022-09-13T00:43:47;7.75;;;6.30;;
20954;SDS011;10636;19.390;-99.256;2022-09-13T00:46:18;7.05;;;5.22;;
20954;SDS011;10636;19.390;-99.256;2022-09-13T00:48:53;10.05;;;7.40;;
20954;SDS011;10636;19.390;-99.256;2022-09-13T00:51:26;10.52;;;7.28;;
20954;SDS011;10636;19.390;-99.256;2022-09-13T00:53:55;9.93;;;8.20;;
20954;SDS011;10636;19.390;-99.256;2022-09-13T00:56:27;11.07;;;8.65;;
20954;SDS011;10636;19.390;-99.256;2022-09-13T00:59:03;16.25;;;12.07;;
20954;SDS011;10636;19.390;-99.256;2022-09-13T01:01:36;14.77;;;12.13;;
20954;SDS011;10636;19.390;-99.256;2022-09-13T01:04:08;17.77;;;14.52;;
20954;SDS011;10636;19.390;-99.256;2022-09-13T01:06:36;14.48;;;12.40;;
20954;SDS011;10636;19.390;-99.256;2022-09-13T01:09:06;13.30;;;11.52;;
20954;SDS011;10636;19.390;-99.256;2022-09-13T01:11:39;18.20;;;13.25;;
20954;SDS011;10636;19.390;-99.256;2022-09-13T01:14:17;22.17;;;15.73;;
20954;SDS011;10636;19.390;-99.256;2022-09-13T01:16:46;15.55;;;13.88;;
20954;SDS011;10636;19.390;-99.256;2022-09-13T01:19:16;13.88;;;10.85;;
20954;SDS011;10636;19.390;-99.256;2022-09-13T01:28:13;18.95;;;14.15;;
20954;SDS011;10636;19.390;-99.256;2022-09-13T01:30:58;13.48;;;10.07;;
20954;SDS011;10636;19.390;-99.256;2022-09-13T01:33:45;15.90;;;11.80;;
20954;SDS011;10636;19.390;-99.256;2022-09-13T01:36:37;12.00;;;9.65;;
20954;SDS011;10636;19.390;-99.256;2022-09-13T01:39:21;13.40;;;10.98;;
20954;SDS011;10636;19.390;-99.256;2022-09-13T01:42:02;9.70;;;8.70;;
20954;SDS011;10636;19.390;-99.256;2022-09-13T01:44:50;11.95;;;9.30;;
20954;SDS011;10636;19.390;-99.256;2022-09-13T01:47:32;11.55;;;8.73;;
20954;SDS011;10636;19.390;-99.256;2022-09-13T01:50:11;10.80;;;8.85;;
20954;SDS011;10636;19.390;-99.256;2022-09-13T01:52:48;13.18;;;10.50;;
20954;SDS011;10636;19.390;-99.256;2022-09-13T01:55:27;8.48;;;7.57;;
20954;SDS011;10636;19.390;-99.256;2022-09-13T01:58:03;11.25;;;8.55;;
20954;SDS011;10636;19.390;-99.256;2022-09-13T02:00:38;8.43;;;6.90;;
20954;SDS011;10636;19.390;-99.256;2022-09-13T02:03:13;11.85;;;9.27;;
20954;SDS011;10636;19.390;-99.256;2022-09-13T02:05:46;8.05;;;7.25;;
20954;SDS011;10636;19.390;-99.256;2022-09-13T02:08:18;12.60;;;9.80;;
20954;SDS011;10636;19.390;-99.256;2022-09-13T02:10:52;9.00;;;7.07;;
20954;SDS011;10636;19.390;-99.256;2022-09-13T02:13:26;9.93;;;6.57;;
20954;SDS011;10636;19.390;-99.256;2022-09-13T02:16:00;9.00;;;6.07;;
20954;SDS011;10636;19.390;-99.256;2022-09-13T02:18:36;7.88;;;6.55;;
20954;SDS011;10636;19.390;-99.256;2022-09-13T02:21:08;9.15;;;6.72;;
20954;SDS011;10636;19.390;-99.256;2022-09-13T02:23:40;9.05;;;6.75;;
20954;SDS011;10636;19.390;-99.256;2022-09-13T02:26:13;7.90;;;6.30;;
20954;SDS011;10636;19.390;-99.256;2022-09-13T02:28:43;6.70;;;6.00;;
20954;SDS011;10636;19.390;-99.256;2022-09-13T02:31:16;7.82;;;6.90;;
20954;SDS011;10636;19.390;-99.256;2022-09-13T02:33:53;7.40;;;6.40;;
20954;SDS011;10636;19.390;-99.256;2022-09-13T02:36:28;7.57;;;6.18;;
20954;SDS011;10636;19.390;-99.256;2022-09-13T02:39:02;7.78;;;6.00;;
20954;SDS011;10636;19.390;-99.256;2022-09-13T02:41:33;7.25;;;6.50;;
20954;SDS011;10636;19.390;-99.256;2022-09-13T02:44:09;8.48;;;6.78;;
20954;SDS011;10636;19.390;-99.256;2022-09-13T02:46:45;7.35;;;6.57;;
20954;SDS011;10636;19.390;-99.256;2022-09-13T02:49:28;6.10;;;5.43;;
20954;SDS011;10636;19.390;-99.256;2022-09-13T02:52:03;9.18;;;5.65;;
20954;SDS011;10636;19.390;-99.256;2022-09-13T02:54:37;5.88;;;5.20;;
20954;SDS011;10636;19.390;-99.256;2022-09-13T02:57:11;6.00;;;5.40;;
20954;SDS011;10636;19.390;-99.256;2022-09-13T02:59:46;5.82;;;5.30;;
20954;SDS011;10636;19.390;-99.256;2022-09-13T03:02:15;6.32;;;5.40;;
20954;SDS011;10636;19.390;-99.256;2022-09-13T03:04:48;8.07;;;5.30;;
20954;SDS011;10636;19.390;-99.256;2022-09-13T03:07:17;7.82;;;5.07;;
20954;SDS011;10636;19.390;-99.256;2022-09-13T03:09:48;5.72;;;4.82;;
20954;SDS011;10636;19.390;-99.256;2022-09-13T03:12:41;5.65;;;5.03;;
20954;SDS011;10636;19.390;-99.256;2022-09-13T03:15:21;6.28;;;4.95;;
20954;SDS011;10636;19.390;-99.256;2022-09-13T03:18:00;5.85;;;4.85;;
20954;SDS011;10636;19.390;-99.256;2022-09-13T03:20:42;5.90;;;5.40;;
20954;SDS011;10636;19.390;-99.256;2022-09-13T03:23:26;6.43;;;5.63;;
20954;SDS011;10636;19.390;-99.256;2022-09-13T03:26:06;5.97;;;5.53;;
20954;SDS011;10636;19.390;-99.256;2022-09-13T03:28:52;6.45;;;5.80;;
20954;SDS011;10636;19.390;-99.256;2022-09-13T03:31:30;7.57;;;5.85;;
20954;SDS011;10636;19.390;-99.256;2022-09-13T03:34:05;6.90;;;6.30;;
20954;SDS011;10636;19.390;-99.256;2022-09-13T03:36:40;7.68;;;6.15;;
20954;SDS011;10636;19.390;-99.256;2022-09-13T03:39:14;6.65;;;6.15;;
20954;SDS011;10636;19.390;-99.256;2022-09-13T03:41:52;6.50;;;5.93;;
20954;SDS011;10636;19.390;-99.256;2022-09-13T03:44:25;6.78;;;6.22;;
20954;SDS011;10636;19.390;-99.256;2022-09-13T03:46:56;6.97;;;6.28;;
20954;SDS011;10636;19.390;-99.256;2022-09-13T03:49:26;21.83;;;20.63;;
20954;SDS011;10636;19.390;-99.256;2022-09-13T03:51:58;6.78;;;6.13;;
20954;SDS011;10636;19.390;-99.256;2022-09-13T03:54:28;7.72;;;6.07;;
20954;SDS011;10636;19.390;-99.256;2022-09-13T03:57:08;6.60;;;6.00;;
20954;SDS011;10636;19.390;-99.256;2022-09-13T03:59:38;7.18;;;6.53;;
20954;SDS011;10636;19.390;-99.256;2022-09-13T04:02:11;6.38;;;5.78;;
20954;SDS011;10636;19.390;-99.256;2022-09-13T04:04:41;5.95;;;5.43;;
20954;SDS011;10636;19.390;-99.256;2022-09-13T04:07:12;7.68;;;6.97;;
20954;SDS011;10636;19.390;-99.256;2022-09-13T04:09:42;7.45;;;6.88;;
20954;SDS011;10636;19.390;-99.256;2022-09-13T04:12:11;7.22;;;6.70;;
20954;SDS011;10636;19.390;-99.256;2022-09-13T04:14:40;7.55;;;6.95;;
20954;SDS011;10636;19.390;-99.256;2022-09-13T04:17:09;5.80;;;5.30;;
20954;SDS011;10636;19.390;-99.256;2022-09-13T04:19:38;6.30;;;5.80;;
20954;SDS011;10636;19.390;-99.256;2022-09-13T04:22:07;6.10;;;5.60;;
20954;SDS011;10636;19.390;-99.256;2022-09-13T04:24:37;6.80;;;6.20;;
20954;SDS011;10636;19.390;-99.256;2022-09-13T04:27:05;6.22;;;5.72;;
20954;SDS011;10636;19.390;-99.256;2022-09-13T04:29:34;6.15;;;5.55;;
20954;SDS011;10636;19.390;-99.256;2022-09-13T04:32:02;7.88;;;7.30;;
20954;SDS011;10636;19.390;-99.256;2022-09-13T04:34:31;7.47;;;6.97;;
20954;SDS011;10636;19.390;-99.256;2022-09-13T04:36:59;6.32;;;5.78;;
20954;SDS011;10636;19.390;-99.256;2022-09-13T04:39:27;6.13;;;5.53;;
20954;SDS011;10636;19.390;-99.256;2022-09-13T04:41:57;8.25;;;7.72;;
20954;SDS011;10636;19.390;-99.256;2022-09-13T04:44:26;8.40;;;7.80;;
20954;SDS011;10636;19.390;-99.256;2022-09-13T04:46:55;8.13;;;7.57;;
20954;SDS011;10636;19.390;-99.256;2022-09-13T04:49:26;8.35;;;7.82;;
20954;SDS011;10636;19.390;-99.256;2022-09-13T04:51:55;6.15;;;5.65;;
20954;SDS011;10636;19.390;-99.256;2022-09-13T04:54:23;6.22;;;5.65;;
20954;SDS011;10636;19.390;-99.256;2022-09-13T04:56:52;9.15;;;8.55;;
20954;SDS011;10636;19.390;-99.256;2022-09-13T04:59:22;8.75;;;8.25;;
20954;SDS011;10636;19.390;-99.256;2022-09-13T05:01:51;6.40;;;5.80;;
20954;SDS011;10636;19.390;-99.256;2022-09-13T05:04:19;6.05;;;5.55;;
20954;SDS011;10636;19.390;-99.256;2022-09-13T05:06:47;6.40;;;5.82;;
20954;SDS011;10636;19.390;-99.256;2022-09-13T05:09:16;6.20;;;5.70;;
20954;SDS011;10636;19.390;-99.256;2022-09-13T05:11:44;6.93;;;6.25;;
20954;SDS011;10636;19.390;-99.256;2022-09-13T05:14:13;6.57;;;5.97;;
20954;SDS011;10636;19.390;-99.256;2022-09-13T05:16:43;6.30;;;5.70;;
20954;SDS011;10636;19.390;-99.256;2022-09-13T05:19:11;6.22;;;5.72;;
20954;SDS011;10636;19.390;-99.256;2022-09-13T05:21:39;10.20;;;9.40;;
20954;SDS011;10636;19.390;-99.256;2022-09-13T05:24:08;8.88;;;8.30;;
20954;SDS011;10636;19.390;-99.256;2022-09-13T05:26:36;6.43;;;5.93;;
20954;SDS011;10636;19.390;-99.256;2022-09-13T05:29:05;6.60;;;6.00;;
20954;SDS011;10636;19.390;-99.256;2022-09-13T05:31:34;8.63;;;8.02;;
20954;SDS011;10636;19.390;-99.256;2022-09-13T05:34:06;10.27;;;9.57;;
20954;SDS011;10636;19.390;-99.256;2022-09-13T05:36:36;11.52;;;10.73;;
20954;SDS011;10636;19.390;-99.256;2022-09-13T05:39:05;10.00;;;9.32;;
20954;SDS011;10636;19.390;-99.256;2022-09-13T05:41:38;9.70;;;9.07;;
20954;SDS011;10636;19.390;-99.256;2022-09-13T05:44:07;6.63;;;6.03;;
20954;SDS011;10636;19.390;-99.256;2022-09-13T05:46:35;10.88;;;10.20;;
20954;SDS011;10636;19.390;-99.256;2022-09-13T05:49:05;11.48;;;10.77;;
20954;SDS011;10636;19.390;-99.256;2022-09-13T05:51:34;12.05;;;11.35;;
20954;SDS011;10636;19.390;-99.256;2022-09-13T05:54:03;12.82;;;12.02;;
20954;SDS011;10636;19.390;-99.256;2022-09-13T05:56:31;12.02;;;11.32;;
20954;SDS011;10636;19.390;-99.256;2022-09-13T05:59:00;11.82;;;11.07;;
20954;SDS011;10636;19.390;-99.256;2022-09-13T06:01:28;7.18;;;6.53;;
20954;SDS011;10636;19.390;-99.256;2022-09-13T06:03:57;6.82;;;6.22;;
20954;SDS011;10636;19.390;-99.256;2022-09-13T06:06:28;13.05;;;12.23;;
20954;SDS011;10636;19.390;-99.256;2022-09-13T06:08:56;13.73;;;12.93;;
20954;SDS011;10636;19.390;-99.256;2022-09-13T06:11:25;14.57;;;13.70;;
20954;SDS011;10636;19.390;-99.256;2022-09-13T06:13:54;13.00;;;12.20;;
20954;SDS011;10636;19.390;-99.256;2022-09-13T06:16:22;15.48;;;14.60;;
20954;SDS011;10636;19.390;-99.256;2022-09-13T06:18:51;12.90;;;12.15;;
20954;SDS011;10636;19.390;-99.256;2022-09-13T06:21:20;13.18;;;12.35;;
20954;SDS011;10636;19.390;-99.256;2022-09-13T06:23:51;7.28;;;6.57;;
20954;SDS011;10636;19.390;-99.256;2022-09-13T06:26:21;7.03;;;6.47;;
20954;SDS011;10636;19.390;-99.256;2022-09-13T06:28:51;14.27;;;13.43;;
20954;SDS011;10636;19.390;-99.256;2022-09-13T06:31:21;13.43;;;12.60;;
20954;SDS011;10636;19.390;-99.256;2022-09-13T06:33:54;14.88;;;13.98;;
20954;SDS011;10636;19.390;-99.256;2022-09-13T06:36:23;7.85;;;7.15;;
20954;SDS011;10636;19.390;-99.256;2022-09-13T06:38:54;15.23;;;14.25;;
20954;SDS011;10636;19.390;-99.256;2022-09-13T06:41:25;15.85;;;14.88;;
20954;SDS011;10636;19.390;-99.256;2022-09-13T06:43:53;16.50;;;15.55;;
20954;SDS011;10636;19.390;-99.256;2022-09-13T06:46:23;15.60;;;14.63;;
20954;SDS011;10636;19.390;-99.256;2022-09-13T06:48:52;8.15;;;7.40;;
20954;SDS011;10636;19.390;-99.256;2022-09-13T06:51:22;15.85;;;14.85;;
20954;SDS011;10636;19.390;-99.256;2022-09-13T06:53:52;9.55;;;8.75;;
20954;SDS011;10636;19.390;-99.256;2022-09-13T06:56:22;8.63;;;7.82;;
20954;SDS011;10636;19.390;-99.256;2022-09-13T06:58:56;9.55;;;8.75;;
20954;SDS011;10636;19.390;-99.256;2022-09-13T07:01:25;9.70;;;8.90;;
20954;SDS011;10636;19.390;-99.256;2022-09-13T07:03:57;15.43;;;14.52;;
20954;SDS011;10636;19.390;-99.256;2022-09-13T07:06:26;19.17;;;18.08;;
20954;SDS011;10636;19.390;-99.256;2022-09-13T07:08:58;18.38;;;17.33;;
20954;SDS011;10636;19.390;-99.256;2022-09-13T07:11:28;18.40;;;17.35;;
20954;SDS011;10636;19.390;-99.256;2022-09-13T07:13:58;18.20;;;17.13;;
20954;SDS011;10636;19.390;-99.256;2022-09-13T07:16:27;19.17;;;18.08;;
20954;SDS011;10636;19.390;-99.256;2022-09-13T07:18:57;10.13;;;9.27;;
20954;SDS011;10636;19.390;-99.256;2022-09-13T07:21:26;9.50;;;8.70;;
20954;SDS011;10636;19.390;-99.256;2022-09-13T07:23:57;10.60;;;9.70;;
20954;SDS011;10636;19.390;-99.256;2022-09-13T07:26:25;20.75;;;19.48;;
20954;SDS011;10636;19.390;-99.256;2022-09-13T07:28:55;19.73;;;18.50;;
20954;SDS011;10636;19.390;-99.256;2022-09-13T07:31:25;20.38;;;19.17;;
20954;SDS011;10636;19.390;-99.256;2022-09-13T07:33:56;10.68;;;9.68;;
20954;SDS011;10636;19.390;-99.256;2022-09-13T07:36:25;21.63;;;20.40;;
20954;SDS011;10636;19.390;-99.256;2022-09-13T07:38:55;19.08;;;17.92;;
20954;SDS011;10636;19.390;-99.256;2022-09-13T07:41:26;10.60;;;9.80;;
20954;SDS011;10636;19.390;-99.256;2022-09-13T07:43:57;10.50;;;9.70;;
20954;SDS011;10636;19.390;-99.256;2022-09-13T07:46:27;11.00;;;10.10;;
20954;SDS011;10636;19.390;-99.256;2022-09-13T07:48:56;11.85;;;10.90;;
20954;SDS011;10636;19.390;-99.256;2022-09-13T07:51:26;10.90;;;10.10;;
20954;SDS011;10636;19.390;-99.256;2022-09-13T07:53:58;11.75;;;10.85;;
20954;SDS011;10636;19.390;-99.256;2022-09-13T07:56:28;12.00;;;11.00;;
20954;SDS011;10636;19.390;-99.256;2022-09-13T07:58:57;12.07;;;11.10;;
20954;SDS011;10636;19.390;-99.256;2022-09-13T08:01:27;12.18;;;11.27;;
20954;SDS011;10636;19.390;-99.256;2022-09-13T08:03:56;12.30;;;11.30;;
20954;SDS011;10636;19.390;-99.256;2022-09-13T08:06:26;11.77;;;10.88;;
20954;SDS011;10636;19.390;-99.256;2022-09-13T08:08:55;12.05;;;11.05;;
20954;SDS011;10636;19.390;-99.256;2022-09-13T08:11:26;12.18;;;11.15;;
20954;SDS011;10636;19.390;-99.256;2022-09-13T08:13:57;11.73;;;10.63;;
20954;SDS011;10636;19.390;-99.256;2022-09-13T08:16:26;17.90;;;16.65;;
20954;SDS011;10636;19.390;-99.256;2022-09-13T08:18:56;21.95;;;20.65;;
20954;SDS011;10636;19.390;-99.256;2022-09-13T08:21:29;24.83;;;23.38;;
20954;SDS011;10636;19.390;-99.256;2022-09-13T08:24:02;11.35;;;10.35;;
20954;SDS011;10636;19.390;-99.256;2022-09-13T08:26:32;22.35;;;20.88;;
20954;SDS011;10636;19.390;-99.256;2022-09-13T08:29:02;24.60;;;23.20;;
20954;SDS011;10636;19.390;-99.256;2022-09-13T08:31:32;21.73;;;20.38;;
20954;SDS011;10636;19.390;-99.256;2022-09-13T08:34:01;11.13;;;10.13;;
20954;SDS011;10636;19.390;-99.256;2022-09-13T08:36:29;10.93;;;9.93;;
20954;SDS011;10636;19.390;-99.256;2022-09-13T08:38:58;12.05;;;11.00;;
20954;SDS011;10636;19.390;-99.256;2022-09-13T08:41:39;12.10;;;11.02;;
20954;SDS011;10636;19.390;-99.256;2022-09-13T08:44:25;12.25;;;11.25;;
20954;SDS011;10636;19.390;-99.256;2022-09-13T08:46:56;10.75;;;9.75;;
20954;SDS011;10636;19.390;-99.256;2022-09-13T08:49:33;20.98;;;19.80;;
20954;SDS011;10636;19.390;-99.256;2022-09-13T08:52:11;22.15;;;20.83;;
20954;SDS011;10636;19.390;-99.256;2022-09-13T08:54:50;21.48;;;20.17;;
20954;SDS011;10636;19.390;-99.256;2022-09-13T08:57:23;24.52;;;23.15;;
20954;SDS011;10636;19.390;-99.256;2022-09-13T08:59:59;24.35;;;22.98;;
20954;SDS011;10636;19.390;-99.256;2022-09-13T09:02:40;23.65;;;22.33;;
20954;SDS011;10636;19.390;-99.256;2022-09-13T09:05:16;22.67;;;21.38;;
20954;SDS011;10636;19.390;-99.256;2022-09-13T09:07:47;24.75;;;23.35;;
20954;SDS011;10636;19.390;-99.256;2022-09-13T09:10:20;23.27;;;21.98;;
20954;SDS011;10636;19.390;-99.256;2022-09-13T09:12:53;23.75;;;22.45;;
20954;SDS011;10636;19.390;-99.256;2022-09-13T09:15:25;25.05;;;23.73;;
20954;SDS011;10636;19.390;-99.256;2022-09-13T09:18:01;24.35;;;23.05;;
20954;SDS011;10636;19.390;-99.256;2022-09-13T09:20:33;24.48;;;23.10;;
20954;SDS011;10636;19.390;-99.256;2022-09-13T09:23:07;9.02;;;8.27;;
20954;SDS011;10636;19.390;-99.256;2022-09-13T09:25:41;22.50;;;21.30;;
20954;SDS011;10636;19.390;-99.256;2022-09-13T09:28:12;21.05;;;19.92;;
20954;SDS011;10636;19.390;-99.256;2022-09-13T09:30:44;22.70;;;21.40;;
20954;SDS011;10636;19.390;-99.256;2022-09-13T09:33:26;21.00;;;19.80;;
20954;SDS011;10636;19.390;-99.256;2022-09-13T09:36:04;8.52;;;7.72;;
20954;SDS011;10636;19.390;-99.256;2022-09-13T09:38:39;21.00;;;19.80;;
20954;SDS011;10636;19.390;-99.256;2022-09-13T09:41:21;8.55;;;7.85;;
20954;SDS011;10636;19.390;-99.256;2022-09-13T09:43:57;8.50;;;7.70;;
20954;SDS011;10636;19.390;-99.256;2022-09-13T09:46:32;23.30;;;22.10;;
20954;SDS011;10636;19.390;-99.256;2022-09-13T09:49:06;8.50;;;7.80;;
20954;SDS011;10636;19.390;-99.256;2022-09-13T09:51:55;8.50;;;7.80;;
20954;SDS011;10636;19.390;-99.256;2022-09-13T09:54:24;10.13;;;9.32;;
20954;SDS011;10636;19.390;-99.256;2022-09-13T09:56:56;21.10;;;19.95;;
20954;SDS011;10636;19.390;-99.256;2022-09-13T09:59:27;22.42;;;21.13;;
20954;SDS011;10636;19.390;-99.256;2022-09-13T10:01:57;8.40;;;7.70;;
20954;SDS011;10636;19.390;-99.256;2022-09-13T10:04:26;8.23;;;7.53;;
20954;SDS011;10636;19.390;-99.256;2022-09-13T10:07:09;8.15;;;7.18;;
20954;SDS011;10636;19.390;-99.256;2022-09-13T10:09:52;8.27;;;7.57;;
20954;SDS011;10636;19.390;-99.256;2022-09-13T10:12:31;19.13;;;18.02;;
20954;SDS011;10636;19.390;-99.256;2022-09-13T10:15:05;21.30;;;20.10;;
20954;SDS011;10636;19.390;-99.256;2022-09-13T10:17:42;20.17;;;19.02;;
20954;SDS011;10636;19.390;-99.256;2022-09-13T10:20:28;21.70;;;20.50;;
20954;SDS011;10636;19.390;-99.256;2022-09-13T10:23:19;23.77;;;22.48;;
20954;SDS011;10636;19.390;-99.256;2022-09-13T10:25:58;21.15;;;19.95;;
20954;SDS011;10636;19.390;-99.256;2022-09-13T10:28:31;8.20;;;7.50;;
20954;SDS011;10636;19.390;-99.256;2022-09-13T10:31:04;21.55;;;20.27;;
20954;SDS011;10636;19.390;-99.256;2022-09-13T10:33:36;24.55;;;23.17;;
20954;SDS011;10636;19.390;-99.256;2022-09-13T10:36:07;20.77;;;19.60;;
20954;SDS011;10636;19.390;-99.256;2022-09-13T10:38:44;21.52;;;20.38;;
20954;SDS011;10636;19.390;-99.256;2022-09-13T10:41:22;22.15;;;20.88;;
20954;SDS011;10636;19.390;-99.256;2022-09-13T10:43:55;8.63;;;7.82;;
20954;SDS011;10636;19.390;-99.256;2022-09-13T10:46:26;8.95;;;8.20;;
20954;SDS011;10636;19.390;-99.256;2022-09-13T10:48:56;8.48;;;7.68;;
20954;SDS011;10636;19.390;-99.256;2022-09-13T10:51:30;9.07;;;8.25;;
20954;SDS011;10636;19.390;-99.256;2022-09-13T10:54:08;22.38;;;21.13;;
20954;SDS011;10636;19.390;-99.256;2022-09-13T10:56:47;11.55;;;9.73;;
20954;SDS011;10636;19.390;-99.256;2022-09-13T10:59:18;22.90;;;21.35;;
20954;SDS011;10636;19.390;-99.256;2022-09-13T11:05:21;27.48;;;25.60;;
20954;SDS011;10636;19.390;-99.256;2022-09-13T11:10:56;11.45;;;10.32;;
20954;SDS011;10636;19.390;-99.256;2022-09-13T11:13:34;12.07;;;10.98;;
20954;SDS011;10636;19.390;-99.256;2022-09-13T11:16:21;27.98;;;26.27;;
20954;SDS011;10636;19.390;-99.256;2022-09-13T11:19:01;27.30;;;25.60;;
20954;SDS011;10636;19.390;-99.256;2022-09-13T11:21:49;27.85;;;26.15;;
20954;SDS011;10636;19.390;-99.256;2022-09-13T11:24:31;11.45;;;10.35;;
20954;SDS011;10636;19.390;-99.256;2022-09-13T11:27:11;11.68;;;10.57;;
20954;SDS011;10636;19.390;-99.256;2022-09-13T11:32:41;11.43;;;10.32;;
20954;SDS011;10636;19.390;-99.256;2022-09-13T11:35:27;11.40;;;9.90;;
20954;SDS011;10636;19.390;-99.256;2022-09-13T11:38:30;28.02;;;26.25;;
20954;SDS011;10636;19.390;-99.256;2022-09-13T11:41:07;27.90;;;26.00;;
20954;SDS011;10636;19.390;-99.256;2022-09-13T11:43:49;28.10;;;26.45;;
20954;SDS011;10636;19.390;-99.256;2022-09-13T11:46:41;10.90;;;9.73;;
20954;SDS011;10636;19.390;-99.256;2022-09-13T11:49:26;11.25;;;10.15;;
20954;SDS011;10636;19.390;-99.256;2022-09-13T11:52:08;26.45;;;24.88;;
20954;SDS011;10636;19.390;-99.256;2022-09-13T11:54:53;27.83;;;26.13;;
20954;SDS011;10636;19.390;-99.256;2022-09-13T11:57:30;10.63;;;9.52;;
20954;SDS011;10636;19.390;-99.256;2022-09-13T12:00:03;11.25;;;10.15;;
20954;SDS011;10636;19.390;-99.256;2022-09-13T12:02:35;9.95;;;8.95;;
20954;SDS011;10636;19.390;-99.256;2022-09-13T12:05:11;27.08;;;25.42;;
20954;SDS011;10636;19.390;-99.256;2022-09-13T12:07:45;27.52;;;25.92;;
20954;SDS011;10636;19.390;-99.256;2022-09-13T12:10:21;25.05;;;23.50;;
20954;SDS011;10636;19.390;-99.256;2022-09-13T12:12:52;27.15;;;25.45;;
20954;SDS011;10636;19.390;-99.256;2022-09-13T12:15:24;10.07;;;9.00;;
20954;SDS011;10636;19.390;-99.256;2022-09-13T12:18:03;10.02;;;9.00;;
20954;SDS011;10636;19.390;-99.256;2022-09-13T12:20:34;25.52;;;24.00;;
20954;SDS011;10636;19.390;-99.256;2022-09-13T12:23:07;10.23;;;9.30;;
20954;SDS011;10636;19.390;-99.256;2022-09-13T12:25:45;25.85;;;24.35;;
20954;SDS011;10636;19.390;-99.256;2022-09-13T12:28:20;25.40;;;23.92;;
20954;SDS011;10636;19.390;-99.256;2022-09-13T12:30:53;10.32;;;9.23;;
20954;SDS011;10636;19.390;-99.256;2022-09-13T12:33:25;11.55;;;9.13;;
20954;SDS011;10636;19.390;-99.256;2022-09-13T12:35:59;10.93;;;9.82;;
20954;SDS011;10636;19.390;-99.256;2022-09-13T12:39:06;10.13;;;9.07;;
20954;SDS011;10636;19.390;-99.256;2022-09-13T12:41:59;11.38;;;9.00;;
20954;SDS011;10636;19.390;-99.256;2022-09-13T12:44:48;11.45;;;10.45;;
20954;SDS011;10636;19.390;-99.256;2022-09-13T12:47:43;9.77;;;8.77;;
20954;SDS011;10636;19.390;-99.256;2022-09-13T12:50:35;10.30;;;9.23;;
20954;SDS011;10636;19.390;-99.256;2022-09-13T12:53:23;9.57;;;8.48;;
20954;SDS011;10636;19.390;-99.256;2022-09-13T12:56:23;9.07;;;8.25;;
20954;SDS011;10636;19.390;-99.256;2022-09-13T12:59:07;10.10;;;9.10;;
20954;SDS011;10636;19.390;-99.256;2022-09-13T13:01:51;9.65;;;8.60;;
20954;SDS011;10636;19.390;-99.256;2022-09-13T13:04:20;10.05;;;9.05;;
20954;SDS011;10636;19.390;-99.256;2022-09-13T13:06:53;10.48;;;9.48;;
20954;SDS011;10636;19.390;-99.256;2022-09-13T13:09:28;10.55;;;9.55;;
20954;SDS011;10636;19.390;-99.256;2022-09-13T13:12:03;9.85;;;8.95;;
20954;SDS011;10636;19.390;-99.256;2022-09-13T13:17:34;10.25;;;9.25;;
20954;SDS011;10636;19.390;-99.256;2022-09-13T13:23:17;9.93;;;8.90;;
20954;SDS011;10636;19.390;-99.256;2022-09-13T13:25:56;9.73;;;8.82;;
20954;SDS011;10636;19.390;-99.256;2022-09-13T13:31:36;9.77;;;8.85;;
20954;SDS011;10636;19.390;-99.256;2022-09-13T13:36:55;9.98;;;9.07;;
20954;SDS011;10636;19.390;-99.256;2022-09-13T13:39:34;11.30;;;9.00;;
20954;SDS011;10636;19.390;-99.256;2022-09-13T13:42:12;10.52;;;9.45;;
20954;SDS011;10636;19.390;-99.256;2022-09-13T13:47:54;10.70;;;9.77;;
20954;SDS011;10636;19.390;-99.256;2022-09-13T13:50:33;10.32;;;9.43;;
20954;SDS011;10636;19.390;-99.256;2022-09-13T13:53:32;10.48;;;9.48;;
20954;SDS011;10636;19.390;-99.256;2022-09-13T13:56:16;10.85;;;9.95;;
20954;SDS011;10636;19.390;-99.256;2022-09-13T13:58:50;9.95;;;8.95;;
20954;SDS011;10636;19.390;-99.256;2022-09-13T14:01:24;11.55;;;10.45;;
20954;SDS011;10636;19.390;-99.256;2022-09-13T14:04:14;10.85;;;9.85;;
20954;SDS011;10636;19.390;-99.256;2022-09-13T14:07:29;11.50;;;10.48;;
20954;SDS011;10636;19.390;-99.256;2022-09-13T14:10:23;11.25;;;10.20;;
20954;SDS011;10636;19.390;-99.256;2022-09-13T14:13:02;11.27;;;10.18;;
20954;SDS011;10636;19.390;-99.256;2022-09-13T14:15:48;11.30;;;9.55;;
20954;SDS011;10636;19.390;-99.256;2022-09-13T14:21:21;13.95;;;10.57;;
20954;SDS011;10636;19.390;-99.256;2022-09-13T14:26:36;13.43;;;10.70;;
20954;SDS011;10636;19.390;-99.256;2022-09-13T14:29:07;11.75;;;10.55;;
20954;SDS011;10636;19.390;-99.256;2022-09-13T14:31:44;10.90;;;9.93;;
20954;SDS011;10636;19.390;-99.256;2022-09-13T14:34:20;11.70;;;10.50;;
20954;SDS011;10636;19.390;-99.256;2022-09-13T14:36:52;11.45;;;10.25;;
20954;SDS011;10636;19.390;-99.256;2022-09-13T14:39:22;11.70;;;9.95;;
20954;SDS011;10636;19.390;-99.256;2022-09-13T14:41:56;12.88;;;10.98;;
20954;SDS011;10636;19.390;-99.256;2022-09-13T14:44:29;11.25;;;10.05;;
20954;SDS011;10636;19.390;-99.256;2022-09-13T14:47:00;12.52;;;10.00;;
20954;SDS011;10636;19.390;-99.256;2022-09-13T14:49:33;12.90;;;10.85;;
20954;SDS011;10636;19.390;-99.256;2022-09-13T14:52:14;11.20;;;10.13;;
20954;SDS011;10636;19.390;-99.256;2022-09-13T14:54:48;11.45;;;10.43;;
20954;SDS011;10636;19.390;-99.256;2022-09-13T14:57:22;11.95;;;9.82;;
20954;SDS011;10636;19.390;-99.256;2022-09-13T14:59:59;10.65;;;9.55;;
20954;SDS011;10636;19.390;-99.256;2022-09-13T15:02:35;11.40;;;10.05;;
20954;SDS011;10636;19.390;-99.256;2022-09-13T15:05:15;11.50;;;10.00;;
20954;SDS011;10636;19.390;-99.256;2022-09-13T15:07:47;10.73;;;9.60;;
20954;SDS011;10636;19.390;-99.256;2022-09-13T15:10:20;11.10;;;9.35;;
20954;SDS011;10636;19.390;-99.256;2022-09-13T15:12:52;11.93;;;10.73;;
20954;SDS011;10636;19.390;-99.256;2022-09-13T15:15:23;11.32;;;10.20;;
20954;SDS011;10636;19.390;-99.256;2022-09-13T15:18:22;12.05;;;10.15;;
20954;SDS011;10636;19.390;-99.256;2022-09-13T15:20:52;11.10;;;10.00;;
20954;SDS011;10636;19.390;-99.256;2022-09-13T15:23:26;11.68;;;10.23;;
20954;SDS011;10636;19.390;-99.256;2022-09-13T15:25:59;11.73;;;10.52;;